Atwood, Wisconsin
Current Conditions -  °F | °C
As of 12:55 AM on Friday 31 Oct 2014 (Local Time) from KMDZ Reporting Station
Light Snow Light Snow  
Wind Chill: -8°   Ceiling: 1700
Heat Index: -2°   Visibility: 2mi
Dew Point: -3°   Wind: 15mph
Humidity: 89%   Direction: 320°NW
Pressure: 30.14"   Gusts: 25mph
Location:  44.9782°N, 90.5368°W
Report Text: KMDZ 310555Z AUTO 32013G22KT 2SM -SN SCT010 OVC017 M01/M03 A3014 RMK AO2 T10151031 10042 21015 400571015
Loading
Personal Weather Stations






























Interactive Weather Map
Tropical Storm Tracking
New forecast layout! Learn more

10-Day Weather Forecast

Advertisements
Track Severe Weather on mobile